createdAt,value
2022-12-13T00:00:57.465Z,10.07
2022-12-13T00:03:24.073Z,19.77
2022-12-13T00:05:50.627Z,8.13
2022-12-13T00:08:17.708Z,9.80
2022-12-13T00:10:47.173Z,10.87
2022-12-13T00:13:13.740Z,8.30
2022-12-13T00:15:40.274Z,9.33
2022-12-13T00:18:06.803Z,9.90
2022-12-13T00:20:33.385Z,7.23
2022-12-13T00:22:59.956Z,10.80
2022-12-13T00:25:26.509Z,13.10
2022-12-13T00:27:53.012Z,9.53
2022-12-13T00:30:19.541Z,12.27
2022-12-13T00:32:46.257Z,8.50
2022-12-13T00:35:13.071Z,9.07
2022-12-13T00:37:39.858Z,10.00
2022-12-13T00:40:07.014Z,9.00
2022-12-13T00:42:34.776Z,12.43
2022-12-13T00:45:01.650Z,9.90
2022-12-13T00:47:28.224Z,10.07
2022-12-13T00:49:54.786Z,9.33
2022-12-13T00:52:21.352Z,7.30
2022-12-13T00:54:48.330Z,9.20
2022-12-13T00:57:14.889Z,21.03
2022-12-13T00:59:41.449Z,9.00
2022-12-13T01:02:08.049Z,11.47
2022-12-13T01:04:35.313Z,10.40
2022-12-13T01:07:01.894Z,8.73
2022-12-13T01:09:30.814Z,12.13
2022-12-13T01:12:02.703Z,8.33
2022-12-13T01:14:29.859Z,9.13
2022-12-13T01:16:57.109Z,14.13
2022-12-13T01:19:24.604Z,9.70
2022-12-13T01:21:55.427Z,9.60
2022-12-13T01:24:24.651Z,10.23
2022-12-13T01:26:52.098Z,10.33
2022-12-13T01:29:24.187Z,8.27
2022-12-13T01:31:53.109Z,7.83
2022-12-13T01:34:21.364Z,7.97
2022-12-13T01:36:53.931Z,9.70
2022-12-13T01:39:26.285Z,8.67
2022-12-13T01:41:59.796Z,10.57
2022-12-13T01:44:57.755Z,7.27
2022-12-13T01:47:33.149Z,9.57
2022-12-13T01:50:06.202Z,9.20
2022-12-13T01:52:34.213Z,6.83
2022-12-13T01:55:04.066Z,7.43
2022-12-13T01:57:32.943Z,10.63
2022-12-13T01:59:59.909Z,9.17
2022-12-13T02:02:26.620Z,9.03
2022-12-13T02:05:11.440Z,8.10
2022-12-13T02:07:41.517Z,10.70
2022-12-13T02:10:09.341Z,9.30
2022-12-13T02:12:37.886Z,8.87
2022-12-13T02:15:14.643Z,8.80
2022-12-13T02:17:52.380Z,8.67
2022-12-13T02:20:43.316Z,6.20
2022-12-13T02:23:39.670Z,8.90
2022-12-13T02:26:41.776Z,7.50
2022-12-13T02:29:46.585Z,9.33
2022-12-13T02:32:28.538Z,7.37
2022-12-13T02:35:03.215Z,8.40
2022-12-13T02:37:32.771Z,9.07
2022-12-13T02:40:25.262Z,11.60
2022-12-13T02:43:02.082Z,8.27
2022-12-13T02:45:34.465Z,7.10
2022-12-13T02:48:03.766Z,7.37
2022-12-13T02:50:32.636Z,8.70
2022-12-13T02:53:00.945Z,7.37
2022-12-13T02:55:28.447Z,5.13
2022-12-13T02:57:55.357Z,6.47
2022-12-13T03:00:35.446Z,7.70
2022-12-13T03:03:30.680Z,6.83
2022-12-13T03:06:38.159Z,8.50
2022-12-13T03:09:32.882Z,5.77
2022-12-13T03:12:31.432Z,7.90
2022-12-13T03:15:12.936Z,8.07
2022-12-13T03:17:57.444Z,5.73
2022-12-13T03:20:26.796Z,8.17
2022-12-13T03:22:53.900Z,8.13
2022-12-13T03:25:31.008Z,6.90
2022-12-13T03:28:01.561Z,6.73
2022-12-13T03:30:31.281Z,7.77
2022-12-13T03:32:57.847Z,6.43
2022-12-13T03:35:25.059Z,6.83
2022-12-13T03:38:01.837Z,8.60
2022-12-13T03:40:30.032Z,8.77
2022-12-13T03:42:56.816Z,6.57
2022-12-13T03:45:23.460Z,6.80
2022-12-13T03:47:50.203Z,6.50
2022-12-13T03:50:26.278Z,6.70
2022-12-13T03:53:01.783Z,6.60
2022-12-13T03:55:28.837Z,5.87
2022-12-13T03:57:55.580Z,5.97
2022-12-13T04:00:22.281Z,7.10
2022-12-13T04:02:48.944Z,5.37
2022-12-13T04:05:16.058Z,8.47
2022-12-13T04:07:47.993Z,8.07
2022-12-13T04:10:25.727Z,6.67
2022-12-13T04:13:12.461Z,7.63
2022-12-13T04:15:39.602Z,7.10
2022-12-13T04:18:06.648Z,7.43
2022-12-13T04:20:33.208Z,5.97
2022-12-13T04:22:59.825Z,6.73
2022-12-13T04:25:26.857Z,6.07
2022-12-13T04:27:53.464Z,6.57
2022-12-13T04:30:20.032Z,7.07
2022-12-13T04:32:46.665Z,6.60
2022-12-13T04:35:13.389Z,6.90
2022-12-13T04:37:43.509Z,6.83
2022-12-13T04:40:10.964Z,7.57
2022-12-13T04:42:37.722Z,7.27
2022-12-13T04:45:04.773Z,6.63
2022-12-13T04:47:31.332Z,7.53
2022-12-13T04:49:57.953Z,7.27
2022-12-13T04:52:24.636Z,5.33
2022-12-13T04:54:55.407Z,6.97
2022-12-13T04:57:22.934Z,7.10
2022-12-13T04:59:49.563Z,5.30
2022-12-13T05:02:23.523Z,6.20
2022-12-13T05:04:54.148Z,7.00
2022-12-13T05:07:21.710Z,6.43
2022-12-13T05:09:48.542Z,6.90
2022-12-13T05:12:23.283Z,4.83
2022-12-13T05:14:53.528Z,5.93
2022-12-13T05:17:20.925Z,4.73
2022-12-13T05:19:47.615Z,5.13
2022-12-13T05:22:20.233Z,6.10
2022-12-13T05:24:47.577Z,6.20
2022-12-13T05:27:25.575Z,5.10
2022-12-13T05:30:03.637Z,6.53
2022-12-13T05:32:43.069Z,5.17
2022-12-13T05:35:22.037Z,5.17
2022-12-13T05:37:53.841Z,6.20
2022-12-13T05:40:22.135Z,5.57
2022-12-13T05:42:48.709Z,7.33
2022-12-13T05:45:17.992Z,8.77
2022-12-13T05:47:44.815Z,4.40
2022-12-13T05:50:11.866Z,6.00
2022-12-13T05:52:38.449Z,5.30
2022-12-13T05:55:05.800Z,5.13
2022-12-13T05:57:32.665Z,5.10
2022-12-13T06:00:00.876Z,5.57
2022-12-13T06:02:27.755Z,5.60
2022-12-13T06:04:54.434Z,6.70
2022-12-13T06:07:21.039Z,8.20
2022-12-13T06:09:47.589Z,6.50
2022-12-13T06:12:31.800Z,6.40
2022-12-13T06:15:01.409Z,4.73
2022-12-13T06:17:35.986Z,4.70
2022-12-13T06:20:23.682Z,7.23
2022-12-13T06:22:54.067Z,5.47
2022-12-13T06:25:31.413Z,6.43
2022-12-13T06:28:01.342Z,6.10
2022-12-13T06:30:29.528Z,5.73
2022-12-13T06:32:56.786Z,14.80
2022-12-13T06:35:28.818Z,15.27
2022-12-13T06:38:01.124Z,7.03
2022-12-13T06:40:30.603Z,7.80
2022-12-13T06:42:57.676Z,6.87
2022-12-13T06:45:24.810Z,8.07
2022-12-13T06:47:51.381Z,8.43
2022-12-13T06:50:17.961Z,6.40
2022-12-13T06:52:46.513Z,6.70
2022-12-13T06:55:13.445Z,6.80
2022-12-13T06:57:40.733Z,6.47
2022-12-13T07:00:09.211Z,6.60
2022-12-13T07:02:35.907Z,8.00
2022-12-13T07:05:02.655Z,9.93
2022-12-13T07:07:29.662Z,6.60
2022-12-13T07:09:56.356Z,6.17
2022-12-13T07:12:23.868Z,6.37
2022-12-13T07:14:50.530Z,6.23
2022-12-13T07:17:32.320Z,7.23
2022-12-13T07:20:01.769Z,7.43
2022-12-13T07:22:28.689Z,6.20
2022-12-13T07:24:55.288Z,6.93
2022-12-13T07:27:21.872Z,5.17
2022-12-13T07:29:48.439Z,6.23
2022-12-13T07:32:14.967Z,7.33
2022-12-13T07:34:41.525Z,9.10
2022-12-13T07:37:09.416Z,9.60
2022-12-13T07:40:02.663Z,6.83
2022-12-13T07:42:29.862Z,10.90
2022-12-13T07:44:56.470Z,28.47
2022-12-13T07:47:23.299Z,7.57
2022-12-13T07:49:49.884Z,7.30
2022-12-13T07:52:16.424Z,6.57
2022-12-13T07:54:42.971Z,7.50
2022-12-13T07:57:09.529Z,6.40
2022-12-13T07:59:36.537Z,6.70
2022-12-13T08:02:03.227Z,8.60
2022-12-13T08:04:29.985Z,7.87
2022-12-13T08:07:11.442Z,9.47
2022-12-13T08:09:38.050Z,10.40
2022-12-13T08:12:05.317Z,9.03
2022-12-13T08:14:31.993Z,6.47
2022-12-13T08:16:58.691Z,8.37
2022-12-13T08:19:25.276Z,5.70
2022-12-13T08:21:55.068Z,5.60
2022-12-13T08:24:26.977Z,7.13
2022-12-13T08:26:54.251Z,29.23
2022-12-13T08:29:23.552Z,38.80
2022-12-13T08:32:01.801Z,36.03
2022-12-13T08:34:28.689Z,36.63
2022-12-13T08:37:01.747Z,33.40
2022-12-13T08:39:36.668Z,30.03
2022-12-13T08:42:15.486Z,31.27
2022-12-13T08:44:44.953Z,32.13
2022-12-13T08:47:11.519Z,26.10
2022-12-13T08:49:38.101Z,23.23
2022-12-13T08:52:04.739Z,24.83
2022-12-13T08:54:33.705Z,22.23
2022-12-13T08:57:00.513Z,22.73
2022-12-13T08:59:27.145Z,19.83
2022-12-13T09:01:55.176Z,16.00
2022-12-13T09:04:31.345Z,16.20
2022-12-13T09:07:01.664Z,21.17
2022-12-13T09:09:29.557Z,17.93
2022-12-13T09:11:59.089Z,17.00
2022-12-13T09:14:33.840Z,17.40
2022-12-13T09:17:02.988Z,13.50
2022-12-13T09:19:36.745Z,16.67
2022-12-13T09:22:04.791Z,14.40
2022-12-13T09:24:35.876Z,16.37
2022-12-13T09:27:09.466Z,14.07
2022-12-13T09:29:37.457Z,14.50
2022-12-13T09:32:04.402Z,13.43
2022-12-13T09:34:32.766Z,10.90
2022-12-13T09:37:01.560Z,14.20
2022-12-13T09:39:29.274Z,14.00
2022-12-13T09:42:01.202Z,13.70
2022-12-13T09:44:43.668Z,10.23
2022-12-13T09:47:22.947Z,17.77
2022-12-13T09:49:52.692Z,12.27
2022-12-13T09:52:23.428Z,12.10
2022-12-13T09:54:57.403Z,11.30
2022-12-13T09:57:32.470Z,12.03
2022-12-13T10:00:06.464Z,12.30
2022-12-13T10:02:42.541Z,13.10
2022-12-13T10:05:21.665Z,12.27
2022-12-13T10:07:52.258Z,16.27
2022-12-13T10:10:19.045Z,11.17
2022-12-13T10:12:51.121Z,13.70
2022-12-13T10:15:22.260Z,11.10
2022-12-13T10:17:55.226Z,11.93
2022-12-13T10:20:25.776Z,11.20
2022-12-13T10:23:29.996Z,10.17
2022-12-13T10:25:54.639Z,13.03
2022-12-13T10:28:32.445Z,17.57
2022-12-13T10:31:00.752Z,17.63
2022-12-13T10:33:32.799Z,12.50
2022-12-13T10:36:33.180Z,13.50
2022-12-13T10:38:59.797Z,16.40
2022-12-13T10:41:36.967Z,21.23
2022-12-13T10:44:25.129Z,11.60
2022-12-13T10:47:02.181Z,10.87
2022-12-13T10:49:37.357Z,11.13
2022-12-13T10:52:04.463Z,9.90
2022-12-13T10:54:38.541Z,19.97
2022-12-13T10:57:15.084Z,15.30
2022-12-13T10:59:41.832Z,21.50
2022-12-13T11:02:32.309Z,12.10
2022-12-13T11:05:13.006Z,17.70
2022-12-13T11:07:39.545Z,16.60
2022-12-13T11:10:17.052Z,11.47
2022-12-13T11:12:44.763Z,12.23
2022-12-13T11:15:23.103Z,10.63
2022-12-13T11:17:54.369Z,10.87
2022-12-13T11:20:25.119Z,10.33
2022-12-13T11:23:06.053Z,10.40
2022-12-13T11:25:44.800Z,9.40
2022-12-13T11:28:53.134Z,10.30
2022-12-13T11:31:45.650Z,13.50
2022-12-13T11:34:33.504Z,9.07
2022-12-13T11:37:19.431Z,13.70
2022-12-13T11:40:01.557Z,18.20
2022-12-13T11:42:35.254Z,10.90
2022-12-13T11:45:22.894Z,8.40
2022-12-13T11:48:03.276Z,11.30
2022-12-13T11:50:40.347Z,13.37
2022-12-13T11:53:19.154Z,19.57
2022-12-13T11:56:07.856Z,9.07
2022-12-13T12:01:42.949Z,12.33
2022-12-13T12:04:37.756Z,9.33
2022-12-13T12:07:31.379Z,25.37
2022-12-13T12:10:11.964Z,9.77
2022-12-13T12:12:42.796Z,15.77
2022-12-13T12:15:31.060Z,13.63
2022-12-13T12:17:57.801Z,11.77
2022-12-13T12:20:47.494Z,10.50
2022-12-13T12:23:28.277Z,17.47
2022-12-13T12:26:09.860Z,8.57
2022-12-13T12:29:01.178Z,8.70
2022-12-13T12:31:54.002Z,9.20
2022-12-13T12:34:50.429Z,9.93
2022-12-13T12:37:29.848Z,11.43
2022-12-13T12:40:52.232Z,8.27
2022-12-13T12:43:34.667Z,16.20
2022-12-13T12:46:08.431Z,8.77
2022-12-13T12:49:01.943Z,9.57
2022-12-13T12:51:58.984Z,7.50
2022-12-13T12:55:11.632Z,10.87
2022-12-13T12:57:47.164Z,9.00
2022-12-13T13:00:18.029Z,7.80
2022-12-13T13:03:20.498Z,9.97
2022-12-13T13:06:09.923Z,12.23
2022-12-13T13:08:59.239Z,9.07
2022-12-13T13:11:35.325Z,7.40
2022-12-13T13:14:31.903Z,9.53
2022-12-13T13:17:01.226Z,7.87
2022-12-13T13:19:30.882Z,8.40
2022-12-13T13:22:02.003Z,6.70
2022-12-13T13:24:31.416Z,9.50
2022-12-13T13:26:59.336Z,6.33
2022-12-13T13:29:28.759Z,7.40
2022-12-13T13:32:01.225Z,7.80
2022-12-13T13:34:48.848Z,7.43
2022-12-13T13:37:23.147Z,7.37
2022-12-13T13:39:53.445Z,7.00
2022-12-13T13:42:22.513Z,8.80
2022-12-13T13:44:49.485Z,7.47
2022-12-13T13:47:20.016Z,9.77
2022-12-13T13:49:55.845Z,8.33
2022-12-13T13:52:31.896Z,6.23
2022-12-13T13:54:58.952Z,7.90
2022-12-13T13:58:07.578Z,12.67
2022-12-13T14:01:00.754Z,10.23
2022-12-13T14:03:49.201Z,6.60
2022-12-13T14:06:27.573Z,9.43
2022-12-13T14:09:12.915Z,6.80
2022-12-13T14:12:16.929Z,8.83
2022-12-13T14:15:21.297Z,7.90
2022-12-13T14:18:12.956Z,5.57
2022-12-13T14:21:06.930Z,8.33
2022-12-13T14:23:47.179Z,32.27
2022-12-13T14:26:28.799Z,29.83
2022-12-13T14:28:58.940Z,28.00
2022-12-13T14:31:47.670Z,25.60
2022-12-13T14:34:22.945Z,24.87
2022-12-13T14:37:30.441Z,18.80
2022-12-13T14:39:59.198Z,18.30
2022-12-13T14:42:34.660Z,24.10
2022-12-13T14:45:22.475Z,17.60
2022-12-13T14:47:49.592Z,18.67
2022-12-13T14:50:17.985Z,16.10
2022-12-13T14:52:45.801Z,12.07
2022-12-13T14:55:36.094Z,16.50
2022-12-13T14:58:16.425Z,17.33
2022-12-13T15:00:43.640Z,10.47
2022-12-13T15:03:21.458Z,12.37
2022-12-13T15:05:52.177Z,10.97
2022-12-13T15:08:19.793Z,12.27
2022-12-13T15:10:53.538Z,11.30
2022-12-13T15:13:36.050Z,10.50
2022-12-13T15:16:10.468Z,12.50
2022-12-13T15:18:38.313Z,10.53
2022-12-13T15:21:22.730Z,9.27
2022-12-13T15:23:50.044Z,14.67
2022-12-13T15:26:28.664Z,11.43
2022-12-13T15:28:59.707Z,15.37
2022-12-13T15:31:27.541Z,8.90
2022-12-13T15:34:00.945Z,15.03
2022-12-13T15:36:29.402Z,7.80
2022-12-13T15:38:56.373Z,10.57
2022-12-13T15:41:25.505Z,10.70
2022-12-13T15:43:54.326Z,9.80
2022-12-13T15:46:30.880Z,9.40
2022-12-13T15:49:02.294Z,10.63
2022-12-13T15:51:30.520Z,7.93
2022-12-13T15:54:04.740Z,7.80
2022-12-13T15:56:31.463Z,8.20
2022-12-13T15:58:58.539Z,13.37
2022-12-13T16:01:36.080Z,10.50
2022-12-13T16:04:04.887Z,9.40
2022-12-13T16:06:33.366Z,18.00
2022-12-13T16:09:05.036Z,18.10
2022-12-13T16:11:35.595Z,12.07
2022-12-13T16:14:30.600Z,9.03
2022-12-13T16:17:01.569Z,11.10
2022-12-13T16:19:35.409Z,13.30
2022-12-13T16:22:02.119Z,8.50
2022-12-13T16:24:35.337Z,8.97
2022-12-13T16:27:01.959Z,18.30
2022-12-13T16:29:35.602Z,16.97
2022-12-13T16:32:08.881Z,11.83
2022-12-13T16:34:36.040Z,12.20
2022-12-13T16:37:03.055Z,9.37
2022-12-13T16:39:35.529Z,14.13
2022-12-13T16:42:02.956Z,11.33
2022-12-13T16:44:35.826Z,9.70
2022-12-13T16:47:18.047Z,12.20
2022-12-13T16:49:47.106Z,7.17
2022-12-13T16:52:13.671Z,10.30
2022-12-13T16:54:40.220Z,7.50
2022-12-13T16:57:06.788Z,9.20
2022-12-13T16:59:33.528Z,8.50
2022-12-13T17:02:00.149Z,9.80
2022-12-13T17:04:27.267Z,10.80
2022-12-13T17:06:55.196Z,8.40
2022-12-13T17:09:22.424Z,7.33
2022-12-13T17:11:49.403Z,11.10
2022-12-13T17:14:16.019Z,8.97
2022-12-13T17:16:42.658Z,9.73
2022-12-13T17:19:10.748Z,8.50
2022-12-13T17:21:37.773Z,9.07
2022-12-13T17:24:04.912Z,5.53
2022-12-13T17:26:32.001Z,7.00
2022-12-13T17:28:58.971Z,5.47
2022-12-13T17:31:28.127Z,10.40
2022-12-13T17:34:00.387Z,7.97
2022-12-13T17:36:26.946Z,7.70
2022-12-13T17:38:53.567Z,6.77
2022-12-13T17:41:20.133Z,7.77
2022-12-13T17:43:46.682Z,7.30
2022-12-13T17:46:16.195Z,7.43
2022-12-13T17:48:45.351Z,5.70
2022-12-13T17:51:13.425Z,6.70
2022-12-13T17:53:42.187Z,7.83
2022-12-13T17:56:12.459Z,7.53
2022-12-13T17:58:39.917Z,7.60
2022-12-13T18:01:14.768Z,6.73
2022-12-13T18:03:41.992Z,6.73
2022-12-13T18:06:09.315Z,7.57
2022-12-13T18:08:37.173Z,7.50
2022-12-13T18:13:54.714Z,5.83
2022-12-13T18:16:24.051Z,8.70
2022-12-13T18:18:55.093Z,7.50
2022-12-13T18:21:23.216Z,7.53
2022-12-13T18:23:55.577Z,5.67
2022-12-13T18:26:23.600Z,5.30
2022-12-13T18:28:50.387Z,6.47
2022-12-13T18:31:20.406Z,6.60
2022-12-13T18:33:48.220Z,6.50
2022-12-13T18:36:16.307Z,7.70
2022-12-13T18:38:43.164Z,5.00
2022-12-13T18:41:13.833Z,7.73
2022-12-13T18:43:41.457Z,5.97
2022-12-13T18:46:09.075Z,6.03
2022-12-13T18:48:36.180Z,5.90
2022-12-13T18:51:05.548Z,5.53
2022-12-13T18:53:33.737Z,9.30
2022-12-13T18:56:18.397Z,6.07
2022-12-13T18:58:46.325Z,6.80
2022-12-13T19:01:13.832Z,7.50
2022-12-13T19:03:43.862Z,7.20
2022-12-13T19:06:19.384Z,7.23
2022-12-13T19:08:53.505Z,8.17
2022-12-13T19:11:20.836Z,4.70
2022-12-13T19:13:48.148Z,6.20
2022-12-13T19:16:17.775Z,6.60
2022-12-13T19:18:44.871Z,6.50
2022-12-13T19:21:22.733Z,4.70
2022-12-13T19:23:58.027Z,6.27
2022-12-13T19:26:29.388Z,13.90
2022-12-13T19:29:09.225Z,4.90
2022-12-13T19:31:52.190Z,5.10
2022-12-13T19:34:19.138Z,6.27
2022-12-13T19:36:45.735Z,5.53
2022-12-13T19:39:12.601Z,6.33
2022-12-13T19:41:39.230Z,5.23
2022-12-13T19:44:06.021Z,7.50
2022-12-13T19:46:33.270Z,6.30
2022-12-13T19:49:00.256Z,7.33
2022-12-13T19:51:27.230Z,4.77
2022-12-13T19:53:53.934Z,5.43
2022-12-13T19:56:21.107Z,5.27
2022-12-13T19:58:48.489Z,4.20
2022-12-13T20:01:16.165Z,6.00
2022-12-13T20:03:45.492Z,5.67
2022-12-13T20:06:15.125Z,6.07
2022-12-13T20:08:42.428Z,5.27
2022-12-13T20:11:14.872Z,4.67
2022-12-13T20:13:41.820Z,5.57
2022-12-13T20:16:13.985Z,5.03
2022-12-13T20:18:40.706Z,6.87
2022-12-13T20:21:12.167Z,5.37
2022-12-13T20:23:40.008Z,5.63
2022-12-13T20:26:10.208Z,5.50
2022-12-13T20:28:36.985Z,4.70
2022-12-13T20:31:09.532Z,4.63
2022-12-13T20:33:37.016Z,4.83
2022-12-13T20:38:55.054Z,6.50
2022-12-13T20:41:22.127Z,5.30
2022-12-13T20:43:54.817Z,4.60
2022-12-13T20:46:24.469Z,5.23
2022-12-13T20:48:52.788Z,6.60
2022-12-13T20:51:24.112Z,5.10
2022-12-13T20:53:54.316Z,4.80
2022-12-13T20:56:27.401Z,7.07
2022-12-13T20:58:56.361Z,6.30
2022-12-13T21:01:33.171Z,3.87
2022-12-13T21:04:03.510Z,7.07
2022-12-13T21:06:37.473Z,5.20
2022-12-13T21:09:08.969Z,4.83
2022-12-13T21:11:40.284Z,6.47
2022-12-13T21:14:21.366Z,8.33
2022-12-13T21:16:55.932Z,4.83
2022-12-13T21:19:39.465Z,4.73
2022-12-13T21:22:08.521Z,3.97
2022-12-13T21:24:38.045Z,5.70
2022-12-13T21:27:07.195Z,5.90
2022-12-13T21:29:36.964Z,8.13
2022-12-13T21:32:06.718Z,4.20
2022-12-13T21:34:36.491Z,4.47
2022-12-13T21:37:06.346Z,5.27
2022-12-13T21:40:10.325Z,4.47
2022-12-13T21:46:41.338Z,7.07
2022-12-13T21:49:14.761Z,5.60
2022-12-13T21:51:47.635Z,4.43
2022-12-13T21:54:18.722Z,5.30
2022-12-13T21:57:03.972Z,3.87
2022-12-13T21:59:31.583Z,4.50
2022-12-13T22:02:14.387Z,6.67
2022-12-13T22:04:43.414Z,3.83
2022-12-13T22:07:12.215Z,6.40
2022-12-13T22:09:38.855Z,5.87
2022-12-13T22:12:11.183Z,3.80
2022-12-13T22:14:37.791Z,5.80
2022-12-13T22:17:04.352Z,4.43
2022-12-13T22:19:30.996Z,8.40
2022-12-13T22:21:57.665Z,6.60
2022-12-13T22:24:24.210Z,5.63
2022-12-13T22:26:50.875Z,6.40
2022-12-13T22:29:17.499Z,5.13
2022-12-13T22:31:44.254Z,6.70
2022-12-13T22:34:15.989Z,5.17
2022-12-13T22:36:42.547Z,6.00
2022-12-13T22:39:18.587Z,6.60
2022-12-13T22:41:46.192Z,5.30
2022-12-13T22:44:13.868Z,4.47
2022-12-13T22:46:41.208Z,7.27
2022-12-13T22:49:08.703Z,20.57
2022-12-13T22:51:36.135Z,24.77
2022-12-13T22:54:03.368Z,12.53
2022-12-13T22:56:30.740Z,13.77
2022-12-13T22:59:01.135Z,14.90
2022-12-13T23:01:33.725Z,18.47
2022-12-13T23:04:00.944Z,12.13
2022-12-13T23:06:33.457Z,15.10
2022-12-13T23:09:02.412Z,12.50
2022-12-13T23:11:48.419Z,14.40
2022-12-13T23:14:17.786Z,13.70
2022-12-13T23:16:44.840Z,11.63
2022-12-13T23:19:40.964Z,10.90
2022-12-13T23:22:01.471Z,11.70
2022-12-13T23:24:28.179Z,9.93
2022-12-13T23:26:54.759Z,10.17
2022-12-13T23:29:21.369Z,8.17
2022-12-13T23:31:50.725Z,12.50
2022-12-13T23:34:17.352Z,11.10
2022-12-13T23:36:43.965Z,9.47
2022-12-13T23:39:11.762Z,8.03
2022-12-13T23:41:38.490Z,11.80
2022-12-13T23:44:05.127Z,8.20
2022-12-13T23:46:34.731Z,10.30
2022-12-13T23:49:04.496Z,9.47
2022-12-13T23:51:31.726Z,6.83
2022-12-13T23:53:58.287Z,11.80
2022-12-13T23:56:24.946Z,8.07
2022-12-13T23:58:51.627Z,8.53
